sensor_id;sensor_type;location;lat;lon;timestamp;pressure;altitude;pressure_sealevel;temperature
4944;BMP280;2487;52.224;11.006;2022-08-20T00:00:33;51493.81;;;-142.39
4944;BMP280;2487;52.224;11.006;2022-08-20T00:03:04;51503.91;;;-142.39
4944;BMP280;2487;52.224;11.006;2022-08-20T00:05:34;51471.53;;;-142.39
4944;BMP280;2487;52.224;11.006;2022-08-20T00:08:01;51505.94;;;-142.39
4944;BMP280;2487;52.224;11.006;2022-08-20T00:10:30;51499.88;;;-142.39
4944;BMP280;2487;52.224;11.006;2022-08-20T00:12:56;51507.97;;;-142.39
4944;BMP280;2487;52.224;11.006;2022-08-20T00:15:25;51520.13;;;-142.39
4944;BMP280;2487;52.224;11.006;2022-08-20T00:17:52;51530.22;;;-142.39
4944;BMP280;2487;52.224;11.006;2022-08-20T00:20:21;51546.41;;;-142.39
4944;BMP280;2487;52.224;11.006;2022-08-20T00:22:47;51503.91;;;-142.39
4944;BMP280;2487;52.224;11.006;2022-08-20T00:25:14;51526.19;;;-142.39
4944;BMP280;2487;52.224;11.006;2022-08-20T00:27:39;51485.72;;;-142.39
4944;BMP280;2487;52.224;11.006;2022-08-20T00:30:09;51516.06;;;-142.39
4944;BMP280;2487;52.224;11.006;2022-08-20T00:33:09;51461.44;;;-142.39
4944;BMP280;2487;52.224;11.006;2022-08-20T00:35:39;51489.75;;;-142.39
4944;BMP280;2487;52.224;11.006;2022-08-20T00:38:05;51497.84;;;-142.39
4944;BMP280;2487;52.224;11.006;2022-08-20T00:40:36;51512.03;;;-142.39
4944;BMP280;2487;52.224;11.006;2022-08-20T00:43:04;51491.78;;;-142.39
4944;BMP280;2487;52.224;11.006;2022-08-20T00:45:32;51516.06;;;-142.39
4944;BMP280;2487;52.224;11.006;2022-08-20T00:47:59;51473.56;;;-142.39
4944;BMP280;2487;52.224;11.006;2022-08-20T00:50:30;51510.00;;;-142.39
4944;BMP280;2487;52.224;11.006;2022-08-20T00:52:59;51518.09;;;-142.39
4944;BMP280;2487;52.224;11.006;2022-08-20T00:55:28;51463.44;;;-142.39
4944;BMP280;2487;52.224;11.006;2022-08-20T00:57:57;51497.84;;;-142.39
4944;BMP280;2487;52.224;11.006;2022-08-20T01:00:27;51520.13;;;-142.39
4944;BMP280;2487;52.224;11.006;2022-08-20T01:02:55;51518.09;;;-142.39
4944;BMP280;2487;52.224;11.006;2022-08-20T01:05:21;51501.91;;;-142.39
4944;BMP280;2487;52.224;11.006;2022-08-20T01:07:49;51485.72;;;-142.39
4944;BMP280;2487;52.224;11.006;2022-08-20T01:10:22;51501.91;;;-142.39
4944;BMP280;2487;52.224;11.006;2022-08-20T01:12:49;51491.78;;;-142.39
4944;BMP280;2487;52.224;11.006;2022-08-20T01:15:19;51507.97;;;-142.39
4944;BMP280;2487;52.224;11.006;2022-08-20T01:17:50;51540.34;;;-142.39
4944;BMP280;2487;52.224;11.006;2022-08-20T01:20:20;51505.94;;;-142.39
4944;BMP280;2487;52.224;11.006;2022-08-20T01:25:52;51550.47;;;-142.39
4944;BMP280;2487;52.224;11.006;2022-08-20T01:28:22;51514.03;;;-142.39
4944;BMP280;2487;52.224;11.006;2022-08-20T01:30:49;51503.91;;;-142.39
4944;BMP280;2487;52.224;11.006;2022-08-20T01:33:19;51501.91;;;-142.39
4944;BMP280;2487;52.224;11.006;2022-08-20T01:35:45;51483.69;;;-142.39
4944;BMP280;2487;52.224;11.006;2022-08-20T01:38:12;51499.88;;;-142.39
4944;BMP280;2487;52.224;11.006;2022-08-20T01:40:50;51493.81;;;-142.39
4944;BMP280;2487;52.224;11.006;2022-08-20T01:43:19;51491.78;;;-142.39
4944;BMP280;2487;52.224;11.006;2022-08-20T01:45:45;51493.81;;;-142.39
4944;BMP280;2487;52.224;11.006;2022-08-20T01:48:12;51503.91;;;-142.39
4944;BMP280;2487;52.224;11.006;2022-08-20T01:50:43;51493.81;;;-142.39
4944;BMP280;2487;52.224;11.006;2022-08-20T01:53:34;51510.00;;;-142.39
4944;BMP280;2487;52.224;11.006;2022-08-20T01:56:01;51489.75;;;-142.39
4944;BMP280;2487;52.224;11.006;2022-08-20T01:58:30;51520.13;;;-142.39
4944;BMP280;2487;52.224;11.006;2022-08-20T02:00:57;51520.13;;;-142.39
4944;BMP280;2487;52.224;11.006;2022-08-20T02:03:23;51534.28;;;-142.39
4944;BMP280;2487;52.224;11.006;2022-08-20T02:05:49;51495.81;;;-142.39
4944;BMP280;2487;52.224;11.006;2022-08-20T02:08:15;51507.97;;;-142.39
4944;BMP280;2487;52.224;11.006;2022-08-20T02:10:40;51503.91;;;-142.39
4944;BMP280;2487;52.224;11.006;2022-08-20T02:13:06;51501.91;;;-142.39
4944;BMP280;2487;52.224;11.006;2022-08-20T02:15:35;51514.03;;;-142.39
4944;BMP280;2487;52.224;11.006;2022-08-20T02:18:08;51520.13;;;-142.39
4944;BMP280;2487;52.224;11.006;2022-08-20T02:20:35;51489.75;;;-142.39
4944;BMP280;2487;52.224;11.006;2022-08-20T02:23:01;51501.91;;;-142.39
4944;BMP280;2487;52.224;11.006;2022-08-20T02:25:32;51512.03;;;-142.39
4944;BMP280;2487;52.224;11.006;2022-08-20T02:28:02;51518.09;;;-142.39
4944;BMP280;2487;52.224;11.006;2022-08-20T02:30:36;51520.13;;;-142.39
4944;BMP280;2487;52.224;11.006;2022-08-20T02:33:06;51532.25;;;-142.39
4944;BMP280;2487;52.224;11.006;2022-08-20T02:35:34;51495.81;;;-142.39
4944;BMP280;2487;52.224;11.006;2022-08-20T02:38:00;51505.94;;;-142.39
4944;BMP280;2487;52.224;11.006;2022-08-20T02:40:28;51518.09;;;-142.39
4944;BMP280;2487;52.224;11.006;2022-08-20T02:42:54;51524.16;;;-142.39
4944;BMP280;2487;52.224;11.006;2022-08-20T02:45:20;51520.13;;;-142.39
4944;BMP280;2487;52.224;11.006;2022-08-20T02:47:47;51479.63;;;-142.39
4944;BMP280;2487;52.224;11.006;2022-08-20T02:50:17;51546.41;;;-142.39
4944;BMP280;2487;52.224;11.006;2022-08-20T02:52:43;51520.13;;;-142.39
4944;BMP280;2487;52.224;11.006;2022-08-20T02:55:09;51485.72;;;-142.39
4944;BMP280;2487;52.224;11.006;2022-08-20T02:57:36;51465.47;;;-142.39
4944;BMP280;2487;52.224;11.006;2022-08-20T03:00:06;51516.06;;;-142.39
4944;BMP280;2487;52.224;11.006;2022-08-20T03:02:32;51493.81;;;-142.39
4944;BMP280;2487;52.224;11.006;2022-08-20T03:04:58;51512.03;;;-142.39
4944;BMP280;2487;52.224;11.006;2022-08-20T03:07:23;51499.88;;;-142.39
4944;BMP280;2487;52.224;11.006;2022-08-20T03:09:49;51501.91;;;-142.39
4944;BMP280;2487;52.224;11.006;2022-08-20T03:12:15;51514.03;;;-142.39
4944;BMP280;2487;52.224;11.006;2022-08-20T03:14:40;51483.69;;;-142.39
4944;BMP280;2487;52.224;11.006;2022-08-20T03:17:06;51493.81;;;-142.39
4944;BMP280;2487;52.224;11.006;2022-08-20T03:19:32;51526.19;;;-142.39
4944;BMP280;2487;52.224;11.006;2022-08-20T03:21:58;51501.91;;;-142.39
4944;BMP280;2487;52.224;11.006;2022-08-20T03:24:23;51516.06;;;-142.39
4944;BMP280;2487;52.224;11.006;2022-08-20T03:26:49;51495.81;;;-142.39
4944;BMP280;2487;52.224;11.006;2022-08-20T03:29:15;51528.22;;;-142.39
4944;BMP280;2487;52.224;11.006;2022-08-20T03:31:41;51536.31;;;-142.39
4944;BMP280;2487;52.224;11.006;2022-08-20T03:34:07;51512.03;;;-142.39
4944;BMP280;2487;52.224;11.006;2022-08-20T03:36:32;51520.13;;;-142.39
4944;BMP280;2487;52.224;11.006;2022-08-20T03:39:01;51530.22;;;-142.39
4944;BMP280;2487;52.224;11.006;2022-08-20T03:41:27;51493.81;;;-142.39
4944;BMP280;2487;52.224;11.006;2022-08-20T03:43:53;51489.75;;;-142.39
4944;BMP280;2487;52.224;11.006;2022-08-20T03:46:19;51532.25;;;-142.39
4944;BMP280;2487;52.224;11.006;2022-08-20T03:48:45;51495.81;;;-142.39
4944;BMP280;2487;52.224;11.006;2022-08-20T03:51:11;51514.03;;;-142.39
4944;BMP280;2487;52.224;11.006;2022-08-20T03:53:37;51528.22;;;-142.39
4944;BMP280;2487;52.224;11.006;2022-08-20T03:56:04;51542.38;;;-142.39
4944;BMP280;2487;52.224;11.006;2022-08-20T03:58:31;51512.03;;;-142.39
4944;BMP280;2487;52.224;11.006;2022-08-20T04:00:58;51516.06;;;-142.39
4944;BMP280;2487;52.224;11.006;2022-08-20T04:03:24;51512.03;;;-142.39
4944;BMP280;2487;52.224;11.006;2022-08-20T04:05:52;51552.50;;;-142.39
4944;BMP280;2487;52.224;11.006;2022-08-20T04:08:21;51505.94;;;-142.39
4944;BMP280;2487;52.224;11.006;2022-08-20T04:10:48;51532.25;;;-142.39
4944;BMP280;2487;52.224;11.006;2022-08-20T04:13:16;51546.41;;;-142.39
4944;BMP280;2487;52.224;11.006;2022-08-20T04:15:42;51538.31;;;-142.39
4944;BMP280;2487;52.224;11.006;2022-08-20T04:18:10;51552.50;;;-142.39
4944;BMP280;2487;52.224;11.006;2022-08-20T04:20:38;51544.41;;;-142.39
4944;BMP280;2487;52.224;11.006;2022-08-20T04:23:05;51542.38;;;-142.39
4944;BMP280;2487;52.224;11.006;2022-08-20T04:25:32;51514.03;;;-142.39
4944;BMP280;2487;52.224;11.006;2022-08-20T04:27:59;51497.84;;;-142.39
4944;BMP280;2487;52.224;11.006;2022-08-20T04:30:26;51524.16;;;-142.39
4944;BMP280;2487;52.224;11.006;2022-08-20T04:32:53;51538.31;;;-142.39
4944;BMP280;2487;52.224;11.006;2022-08-20T04:35:21;51516.06;;;-142.39
4944;BMP280;2487;52.224;11.006;2022-08-20T04:37:55;51520.13;;;-142.39
4944;BMP280;2487;52.224;11.006;2022-08-20T04:40:22;51548.44;;;-142.39
4944;BMP280;2487;52.224;11.006;2022-08-20T04:43:06;51503.91;;;-142.39
4944;BMP280;2487;52.224;11.006;2022-08-20T04:45:32;51530.22;;;-142.39
4944;BMP280;2487;52.224;11.006;2022-08-20T04:48:01;51534.28;;;-142.39
4944;BMP280;2487;52.224;11.006;2022-08-20T04:50:32;51507.97;;;-142.39
4944;BMP280;2487;52.224;11.006;2022-08-20T04:53:07;51512.03;;;-142.39
4944;BMP280;2487;52.224;11.006;2022-08-20T04:55:34;51530.22;;;-142.39
4944;BMP280;2487;52.224;11.006;2022-08-20T04:58:08;51550.47;;;-142.39
4944;BMP280;2487;52.224;11.006;2022-08-20T05:00:34;51512.03;;;-142.39
4944;BMP280;2487;52.224;11.006;2022-08-20T05:03:00;51534.28;;;-142.39
4944;BMP280;2487;52.224;11.006;2022-08-20T05:05:26;51493.81;;;-142.39
4944;BMP280;2487;52.224;11.006;2022-08-20T05:07:53;51510.00;;;-142.39
4944;BMP280;2487;52.224;11.006;2022-08-20T05:10:20;51542.38;;;-142.39
4944;BMP280;2487;52.224;11.006;2022-08-20T05:12:48;51497.84;;;-142.39
4944;BMP280;2487;52.224;11.006;2022-08-20T05:15:14;51507.97;;;-142.39
4944;BMP280;2487;52.224;11.006;2022-08-20T05:17:41;51493.81;;;-142.39
4944;BMP280;2487;52.224;11.006;2022-08-20T05:20:10;51501.91;;;-142.39
4944;BMP280;2487;52.224;11.006;2022-08-20T05:22:36;51481.66;;;-142.39
4944;BMP280;2487;52.224;11.006;2022-08-20T05:25:02;51501.91;;;-142.39
4944;BMP280;2487;52.224;11.006;2022-08-20T05:27:28;51507.97;;;-142.39
4944;BMP280;2487;52.224;11.006;2022-08-20T05:30:06;51520.13;;;-142.39
4944;BMP280;2487;52.224;11.006;2022-08-20T05:32:33;51542.38;;;-142.39
4944;BMP280;2487;52.224;11.006;2022-08-20T05:35:01;51518.09;;;-142.39
4944;BMP280;2487;52.224;11.006;2022-08-20T05:37:26;51503.91;;;-142.39
4944;BMP280;2487;52.224;11.006;2022-08-20T05:39:54;51540.34;;;-142.39
4944;BMP280;2487;52.224;11.006;2022-08-20T05:42:20;51516.06;;;-142.39
4944;BMP280;2487;52.224;11.006;2022-08-20T05:44:46;51499.88;;;-142.39
4944;BMP280;2487;52.224;11.006;2022-08-20T05:47:12;51493.81;;;-142.39
4944;BMP280;2487;52.224;11.006;2022-08-20T05:49:38;51518.09;;;-142.39
4944;BMP280;2487;52.224;11.006;2022-08-20T05:52:04;51540.34;;;-142.39
4944;BMP280;2487;52.224;11.006;2022-08-20T05:54:31;51483.69;;;-142.39
4944;BMP280;2487;52.224;11.006;2022-08-20T05:56:57;51471.53;;;-142.39
4944;BMP280;2487;52.224;11.006;2022-08-20T05:59:23;51526.19;;;-142.39
4944;BMP280;2487;52.224;11.006;2022-08-20T06:01:50;51507.97;;;-142.39
4944;BMP280;2487;52.224;11.006;2022-08-20T06:04:16;51497.84;;;-142.39
4944;BMP280;2487;52.224;11.006;2022-08-20T06:07:00;51487.75;;;-142.39
4944;BMP280;2487;52.224;11.006;2022-08-20T06:09:26;51514.03;;;-142.39
4944;BMP280;2487;52.224;11.006;2022-08-20T06:11:52;51518.09;;;-142.39
4944;BMP280;2487;52.224;11.006;2022-08-20T06:14:18;51491.78;;;-142.39
4944;BMP280;2487;52.224;11.006;2022-08-20T06:16:45;51512.03;;;-142.39
4944;BMP280;2487;52.224;11.006;2022-08-20T06:19:11;51516.06;;;-142.39
4944;BMP280;2487;52.224;11.006;2022-08-20T06:21:38;51497.84;;;-142.39
4944;BMP280;2487;52.224;11.006;2022-08-20T06:24:05;51505.94;;;-142.39
4944;BMP280;2487;52.224;11.006;2022-08-20T06:26:31;51497.84;;;-142.39
4944;BMP280;2487;52.224;11.006;2022-08-20T06:29:00;51487.75;;;-142.39
4944;BMP280;2487;52.224;11.006;2022-08-20T06:31:26;51516.06;;;-142.39
4944;BMP280;2487;52.224;11.006;2022-08-20T06:33:51;51507.97;;;-142.39
4944;BMP280;2487;52.224;11.006;2022-08-20T06:36:18;51497.84;;;-142.39
4944;BMP280;2487;52.224;11.006;2022-08-20T06:38:44;51489.75;;;-142.39
4944;BMP280;2487;52.224;11.006;2022-08-20T06:41:10;51477.63;;;-142.39
4944;BMP280;2487;52.224;11.006;2022-08-20T06:43:36;51507.97;;;-142.39
4944;BMP280;2487;52.224;11.006;2022-08-20T06:46:02;51471.53;;;-142.39
4944;BMP280;2487;52.224;11.006;2022-08-20T06:48:28;51467.50;;;-142.39
4944;BMP280;2487;52.224;11.006;2022-08-20T06:50:53;51499.88;;;-142.39
4944;BMP280;2487;52.224;11.006;2022-08-20T06:53:20;51497.84;;;-142.39
4944;BMP280;2487;52.224;11.006;2022-08-20T06:55:49;51493.81;;;-142.39
4944;BMP280;2487;52.224;11.006;2022-08-20T06:58:16;51501.91;;;-142.39
4944;BMP280;2487;52.224;11.006;2022-08-20T07:00:43;51491.78;;;-142.39
4944;BMP280;2487;52.224;11.006;2022-08-20T07:03:09;51485.72;;;-142.39
4944;BMP280;2487;52.224;11.006;2022-08-20T07:05:39;51503.91;;;-142.39
4944;BMP280;2487;52.224;11.006;2022-08-20T07:08:13;51522.13;;;-142.39
4944;BMP280;2487;52.224;11.006;2022-08-20T07:10:40;51465.47;;;-142.39
4944;BMP280;2487;52.224;11.006;2022-08-20T07:13:08;51477.63;;;-142.39
4944;BMP280;2487;52.224;11.006;2022-08-20T07:15:34;51447.25;;;-142.39
4944;BMP280;2487;52.224;11.006;2022-08-20T07:18:02;51524.16;;;-142.39
4944;BMP280;2487;52.224;11.006;2022-08-20T07:20:30;51479.63;;;-142.39
4944;BMP280;2487;52.224;11.006;2022-08-20T07:22:58;51461.44;;;-142.39
4944;BMP280;2487;52.224;11.006;2022-08-20T07:25:25;51501.91;;;-142.39
4944;BMP280;2487;52.224;11.006;2022-08-20T07:27:51;51473.56;;;-142.39
4944;BMP280;2487;52.224;11.006;2022-08-20T07:30:20;51487.75;;;-142.39
4944;BMP280;2487;52.224;11.006;2022-08-20T07:33:05;51429.06;;;-142.39
4944;BMP280;2487;52.224;11.006;2022-08-20T07:35:31;51512.03;;;-142.39
4944;BMP280;2487;52.224;11.006;2022-08-20T07:37:56;51487.75;;;-142.39
4944;BMP280;2487;52.224;11.006;2022-08-20T07:40:27;51489.75;;;-142.39
4944;BMP280;2487;52.224;11.006;2022-08-20T07:42:55;51481.66;;;-142.39
4944;BMP280;2487;52.224;11.006;2022-08-20T07:45:21;51453.34;;;-142.39
4944;BMP280;2487;52.224;11.006;2022-08-20T07:47:48;51457.38;;;-142.39
4944;BMP280;2487;52.224;11.006;2022-08-20T07:50:21;51459.41;;;-142.39
4944;BMP280;2487;52.224;11.006;2022-08-20T07:52:47;51481.66;;;-142.39
4944;BMP280;2487;52.224;11.006;2022-08-20T07:55:17;51457.38;;;-142.39
4944;BMP280;2487;52.224;11.006;2022-08-20T07:57:43;51487.75;;;-142.39
4944;BMP280;2487;52.224;11.006;2022-08-20T08:00:11;51471.53;;;-142.39
4944;BMP280;2487;52.224;11.006;2022-08-20T08:02:38;51461.44;;;-142.39
4944;BMP280;2487;52.224;11.006;2022-08-20T08:05:05;51469.53;;;-142.39
4944;BMP280;2487;52.224;11.006;2022-08-20T08:07:32;51479.63;;;-142.39
4944;BMP280;2487;52.224;11.006;2022-08-20T08:10:00;51431.06;;;-142.39
4944;BMP280;2487;52.224;11.006;2022-08-20T08:12:32;51471.53;;;-142.39
4944;BMP280;2487;52.224;11.006;2022-08-20T08:15:02;51481.66;;;-142.39
4944;BMP280;2487;52.224;11.006;2022-08-20T08:20:15;51457.38;;;-142.39
4944;BMP280;2487;52.224;11.006;2022-08-20T08:22:41;51479.63;;;-142.39
4944;BMP280;2487;52.224;11.006;2022-08-20T08:25:09;51463.44;;;-142.39
4944;BMP280;2487;52.224;11.006;2022-08-20T08:27:35;51437.16;;;-142.39
4944;BMP280;2487;52.224;11.006;2022-08-20T08:30:03;51445.25;;;-142.39
4944;BMP280;2487;52.224;11.006;2022-08-20T08:32:29;51449.28;;;-142.39
4944;BMP280;2487;52.224;11.006;2022-08-20T08:34:57;51469.53;;;-142.39
4944;BMP280;2487;52.224;11.006;2022-08-20T08:37:23;51457.38;;;-142.39
4944;BMP280;2487;52.224;11.006;2022-08-20T08:39:49;51455.34;;;-142.39
4944;BMP280;2487;52.224;11.006;2022-08-20T08:44:48;51477.63;;;-142.39
4944;BMP280;2487;52.224;11.006;2022-08-20T08:47:30;51465.47;;;-142.39
4944;BMP280;2487;52.224;11.006;2022-08-20T08:49:57;51443.22;;;-142.39
4944;BMP280;2487;52.224;11.006;2022-08-20T08:52:27;51455.34;;;-142.39
4944;BMP280;2487;52.224;11.006;2022-08-20T08:54:58;51455.34;;;-142.39
4944;BMP280;2487;52.224;11.006;2022-08-20T08:57:25;51483.69;;;-142.39
4944;BMP280;2487;52.224;11.006;2022-08-20T09:00:01;51473.56;;;-142.39
4944;BMP280;2487;52.224;11.006;2022-08-20T09:02:29;51467.50;;;-142.39
4944;BMP280;2487;52.224;11.006;2022-08-20T09:04:57;51481.66;;;-142.39
4944;BMP280;2487;52.224;11.006;2022-08-20T09:07:27;51475.59;;;-142.39
4944;BMP280;2487;52.224;11.006;2022-08-20T09:09:53;51471.53;;;-142.39
4944;BMP280;2487;52.224;11.006;2022-08-20T09:12:21;51473.56;;;-142.39
4944;BMP280;2487;52.224;11.006;2022-08-20T09:14:49;51445.25;;;-142.39
4944;BMP280;2487;52.224;11.006;2022-08-20T09:17:18;51469.53;;;-142.39
4944;BMP280;2487;52.224;11.006;2022-08-20T09:19:44;51449.28;;;-142.39
4944;BMP280;2487;52.224;11.006;2022-08-20T09:22:15;51473.56;;;-142.39
4944;BMP280;2487;52.224;11.006;2022-08-20T09:24:42;51453.34;;;-142.39
4944;BMP280;2487;52.224;11.006;2022-08-20T09:27:08;51483.69;;;-142.39
4944;BMP280;2487;52.224;11.006;2022-08-20T09:29:35;51493.81;;;-142.39
4944;BMP280;2487;52.224;11.006;2022-08-20T09:32:16;51469.53;;;-142.39
4944;BMP280;2487;52.224;11.006;2022-08-20T09:34:44;51491.78;;;-142.39
4944;BMP280;2487;52.224;11.006;2022-08-20T09:37:11;51487.75;;;-142.39
4944;BMP280;2487;52.224;11.006;2022-08-20T09:39:37;51481.66;;;-142.39
4944;BMP280;2487;52.224;11.006;2022-08-20T09:42:08;51485.72;;;-142.39
4944;BMP280;2487;52.224;11.006;2022-08-20T09:44:34;51471.53;;;-142.39
4944;BMP280;2487;52.224;11.006;2022-08-20T09:47:00;51522.13;;;-142.39
4944;BMP280;2487;52.224;11.006;2022-08-20T09:49:26;51481.66;;;-142.39
4944;BMP280;2487;52.224;11.006;2022-08-20T09:51:52;51453.34;;;-142.39
4944;BMP280;2487;52.224;11.006;2022-08-20T09:54:19;51477.63;;;-142.39
4944;BMP280;2487;52.224;11.006;2022-08-20T09:56:45;51485.72;;;-142.39
4944;BMP280;2487;52.224;11.006;2022-08-20T09:59:13;51475.59;;;-142.39
4944;BMP280;2487;52.224;11.006;2022-08-20T10:01:39;51497.84;;;-142.39
4944;BMP280;2487;52.224;11.006;2022-08-20T10:04:05;51425.00;;;-142.39
4944;BMP280;2487;52.224;11.006;2022-08-20T10:06:38;51501.91;;;-142.39
4944;BMP280;2487;52.224;11.006;2022-08-20T10:09:04;51463.44;;;-142.39
4944;BMP280;2487;52.224;11.006;2022-08-20T10:11:29;51495.81;;;-142.39
4944;BMP280;2487;52.224;11.006;2022-08-20T10:13:55;51473.56;;;-142.39
4944;BMP280;2487;52.224;11.006;2022-08-20T10:16:21;51497.84;;;-142.39
4944;BMP280;2487;52.224;11.006;2022-08-20T10:18:46;51473.56;;;-142.39
4944;BMP280;2487;52.224;11.006;2022-08-20T10:21:16;51471.53;;;-142.39
4944;BMP280;2487;52.224;11.006;2022-08-20T10:23:42;51441.19;;;-142.39
4944;BMP280;2487;52.224;11.006;2022-08-20T10:26:09;51473.56;;;-142.39
4944;BMP280;2487;52.224;11.006;2022-08-20T10:28:35;51463.44;;;-142.39
4944;BMP280;2487;52.224;11.006;2022-08-20T10:31:04;51445.25;;;-142.39
4944;BMP280;2487;52.224;11.006;2022-08-20T10:33:29;51443.22;;;-142.39
4944;BMP280;2487;52.224;11.006;2022-08-20T10:35:55;51455.34;;;-142.39
4944;BMP280;2487;52.224;11.006;2022-08-20T10:38:21;51425.00;;;-142.39
4944;BMP280;2487;52.224;11.006;2022-08-20T10:40:47;51463.44;;;-142.39
4944;BMP280;2487;52.224;11.006;2022-08-20T10:43:12;51429.06;;;-142.39
4944;BMP280;2487;52.224;11.006;2022-08-20T10:45:38;51455.34;;;-142.39
4944;BMP280;2487;52.224;11.006;2022-08-20T10:48:04;51441.19;;;-142.39
4944;BMP280;2487;52.224;11.006;2022-08-20T10:50:32;51479.63;;;-142.39
4944;BMP280;2487;52.224;11.006;2022-08-20T10:52:58;51485.72;;;-142.39
4944;BMP280;2487;52.224;11.006;2022-08-20T10:55:24;51493.81;;;-142.39
4944;BMP280;2487;52.224;11.006;2022-08-20T10:57:49;51463.44;;;-142.39
4944;BMP280;2487;52.224;11.006;2022-08-20T11:00:17;51469.53;;;-142.39
4944;BMP280;2487;52.224;11.006;2022-08-20T11:02:43;51416.91;;;-142.39
4944;BMP280;2487;52.224;11.006;2022-08-20T11:07:55;51453.34;;;-142.39
4944;BMP280;2487;52.224;11.006;2022-08-20T11:10:21;51443.22;;;-142.39
4944;BMP280;2487;52.224;11.006;2022-08-20T11:12:47;51461.44;;;-142.39
4944;BMP280;2487;52.224;11.006;2022-08-20T11:15:14;51431.06;;;-142.39
4944;BMP280;2487;52.224;11.006;2022-08-20T11:17:41;51360.25;;;-142.39
4944;BMP280;2487;52.224;11.006;2022-08-20T11:20:09;51390.59;;;-142.39
4944;BMP280;2487;52.224;11.006;2022-08-20T11:22:36;51453.34;;;-142.39
4944;BMP280;2487;52.224;11.006;2022-08-20T11:25:04;51427.03;;;-142.39
4944;BMP280;2487;52.224;11.006;2022-08-20T11:27:33;51425.00;;;-142.39
4944;BMP280;2487;52.224;11.006;2022-08-20T11:29:59;51439.16;;;-142.39
4944;BMP280;2487;52.224;11.006;2022-08-20T11:32:26;51420.97;;;-142.39
4944;BMP280;2487;52.224;11.006;2022-08-20T11:34:52;51457.38;;;-142.39
4944;BMP280;2487;52.224;11.006;2022-08-20T11:37:21;51435.13;;;-142.39
4944;BMP280;2487;52.224;11.006;2022-08-20T11:39:47;51443.22;;;-142.39
4944;BMP280;2487;52.224;11.006;2022-08-20T11:42:14;51420.97;;;-142.39
4944;BMP280;2487;52.224;11.006;2022-08-20T11:44:40;51425.00;;;-142.39
4944;BMP280;2487;52.224;11.006;2022-08-20T11:47:06;51422.97;;;-142.39
4944;BMP280;2487;52.224;11.006;2022-08-20T11:49:34;51451.31;;;-142.39
4944;BMP280;2487;52.224;11.006;2022-08-20T11:52:00;51433.09;;;-142.39
4944;BMP280;2487;52.224;11.006;2022-08-20T11:54:26;51431.06;;;-142.39
4944;BMP280;2487;52.224;11.006;2022-08-20T11:56:56;51451.31;;;-142.39
4944;BMP280;2487;52.224;11.006;2022-08-20T11:59:25;51408.81;;;-142.39
4944;BMP280;2487;52.224;11.006;2022-08-20T12:01:52;51418.94;;;-142.39
4944;BMP280;2487;52.224;11.006;2022-08-20T12:04:20;51463.44;;;-142.39
4944;BMP280;2487;52.224;11.006;2022-08-20T12:06:46;51465.47;;;-142.39
4944;BMP280;2487;52.224;11.006;2022-08-20T12:09:12;51455.34;;;-142.39
4944;BMP280;2487;52.224;11.006;2022-08-20T12:11:38;51406.78;;;-142.39
4944;BMP280;2487;52.224;11.006;2022-08-20T12:14:04;51439.16;;;-142.39
4944;BMP280;2487;52.224;11.006;2022-08-20T12:16:29;51402.75;;;-142.39
4944;BMP280;2487;52.224;11.006;2022-08-20T12:18:55;51416.91;;;-142.39
4944;BMP280;2487;52.224;11.006;2022-08-20T12:21:21;51457.38;;;-142.39
4944;BMP280;2487;52.224;11.006;2022-08-20T12:23:46;51469.53;;;-142.39
4944;BMP280;2487;52.224;11.006;2022-08-20T12:26:12;51431.06;;;-142.39
4944;BMP280;2487;52.224;11.006;2022-08-20T12:28:38;51445.25;;;-142.39
4944;BMP280;2487;52.224;11.006;2022-08-20T12:31:04;51463.44;;;-142.39
4944;BMP280;2487;52.224;11.006;2022-08-20T12:33:30;51410.84;;;-142.39
4944;BMP280;2487;52.224;11.006;2022-08-20T12:35:56;51459.41;;;-142.39
4944;BMP280;2487;52.224;11.006;2022-08-20T12:38:22;51412.88;;;-142.39
4944;BMP280;2487;52.224;11.006;2022-08-20T12:40:47;51441.19;;;-142.39
4944;BMP280;2487;52.224;11.006;2022-08-20T12:43:13;51431.06;;;-142.39
4944;BMP280;2487;52.224;11.006;2022-08-20T12:45:39;51475.59;;;-142.39
4944;BMP280;2487;52.224;11.006;2022-08-20T12:48:08;51449.28;;;-142.39
4944;BMP280;2487;52.224;11.006;2022-08-20T12:50:35;51469.53;;;-142.39
4944;BMP280;2487;52.224;11.006;2022-08-20T12:53:01;51447.25;;;-142.39
4944;BMP280;2487;52.224;11.006;2022-08-20T12:55:28;51427.03;;;-142.39
4944;BMP280;2487;52.224;11.006;2022-08-20T12:57:57;51475.59;;;-142.39
4944;BMP280;2487;52.224;11.006;2022-08-20T13:02:52;51471.53;;;-142.39
4944;BMP280;2487;52.224;11.006;2022-08-20T13:05:19;51463.44;;;-142.39
4944;BMP280;2487;52.224;11.006;2022-08-20T13:07:45;51483.69;;;-142.39
4944;BMP280;2487;52.224;11.006;2022-08-20T13:10:19;51437.16;;;-142.39
4944;BMP280;2487;52.224;11.006;2022-08-20T13:12:45;51495.81;;;-142.39
4944;BMP280;2487;52.224;11.006;2022-08-20T13:15:11;51505.94;;;-142.39
4944;BMP280;2487;52.224;11.006;2022-08-20T13:17:37;51483.69;;;-142.39
4944;BMP280;2487;52.224;11.006;2022-08-20T13:20:05;51473.56;;;-142.39
4944;BMP280;2487;52.224;11.006;2022-08-20T13:22:32;51447.25;;;-142.39
4944;BMP280;2487;52.224;11.006;2022-08-20T13:24:57;51471.53;;;-142.39
4944;BMP280;2487;52.224;11.006;2022-08-20T13:27:23;51467.50;;;-142.39
4944;BMP280;2487;52.224;11.006;2022-08-20T13:29:51;51461.44;;;-142.39
4944;BMP280;2487;52.224;11.006;2022-08-20T13:32:17;51439.16;;;-142.39
4944;BMP280;2487;52.224;11.006;2022-08-20T13:34:44;51483.69;;;-142.39
4944;BMP280;2487;52.224;11.006;2022-08-20T13:37:15;51479.63;;;-142.39
4944;BMP280;2487;52.224;11.006;2022-08-20T13:39:42;51443.22;;;-142.39
4944;BMP280;2487;52.224;11.006;2022-08-20T13:42:09;51479.63;;;-142.39
4944;BMP280;2487;52.224;11.006;2022-08-20T13:44:36;51449.28;;;-142.39
4944;BMP280;2487;52.224;11.006;2022-08-20T13:47:22;51455.34;;;-142.39
4944;BMP280;2487;52.224;11.006;2022-08-20T13:50:01;51501.91;;;-142.39
4944;BMP280;2487;52.224;11.006;2022-08-20T13:52:29;51461.44;;;-142.39
4944;BMP280;2487;52.224;11.006;2022-08-20T13:54:56;51451.31;;;-142.39
4944;BMP280;2487;52.224;11.006;2022-08-20T13:57:23;51441.19;;;-142.39
4944;BMP280;2487;52.224;11.006;2022-08-20T13:59:51;51483.69;;;-142.39
4944;BMP280;2487;52.224;11.006;2022-08-20T14:02:18;51473.56;;;-142.39
4944;BMP280;2487;52.224;11.006;2022-08-20T14:04:44;51485.72;;;-142.39
4944;BMP280;2487;52.224;11.006;2022-08-20T14:09:46;51503.91;;;-142.39
4944;BMP280;2487;52.224;11.006;2022-08-20T14:12:13;51477.63;;;-142.39
4944;BMP280;2487;52.224;11.006;2022-08-20T14:14:40;51501.91;;;-142.39